Airfield :
LOGIN :

Register | Disclaimer

   EN    FR    IT 

 










Legend :    VFR   Marginal VFR   IFR   Intensive IFR   Very Intensive IFR
Visi :
Ceiling :
>= 8 km
>= 3000ft
5 to 8 km
1000 to 3000 ft
1500m to 5 km
500 to 1000 ft
800 to 1500m
200 to 500 ft
< 800m
< 200 ft
Symbols :   Thunderstorms  Fog  Heavy snow  Heavy precipitations  Wind > 20 kt
SIGMETs :     Misc.  Thunderstorms  Icing  Turbulence  Mountain Waves  Volcanic Ashes






- Airport Elevation : 665 ft
- IATA code : NOC


EIKN - Connaught / Knock- Ireland West

CURRENT METAR :
  • 240900Z 24012KT 210V270 8000 -DZ OVC003 15/15 Q1014 NOSIG

EXPIRED METARs :
  • 240830Z 25011KT 1700 -DZ BKN003 BKN007 15/15 Q1014 TEMPO 0700
  • 240800Z 24016KT 1100 -DZ OVC002 15/15 Q1014 TEMPO 0700
  • 240730Z 25014KT 0700 R26/P1400 FG OVC002 15/15 Q1014 TEMPO 2000
  • 240700Z 25015KT 0300 FG BKN002 BKN007 15/15 Q1014 TEMPO 2000
  • 240630Z 25013KT 0150 FG BKN002 BKN006 15/15 Q1014 NOSIG

TAF COR TAF EIKN
Valid from the 24 at 06:00 until the 25 at 06:00 UTC


240643Z 2406/2506 26012KT 0300 FG BKN001 BKN007
PROB40
TEMPO 2406/2408 2000 -DZ BKN004
TEMPO 2408/2412 6000 NSW SCT003 BKN010
BECMG 2412/2414 9000 NSW BKN015
BECMG 2417/2419 2000 BKN004
TEMPO 2420/2506 0500 FG BKN001
BECMG 2423/2501 22008KT



MET'MAP, your aeronautical weather chart ! - Copyright ORBIFLY December 2007 - Disclaimer

ORBIFLY MET'MAP TEAM :

Programming & Development : Alexandra Zaïnal
Concept & original design : Baudouin d'Aumeries
Assistance for programming : Marc-Olivier Méhu
Technical & hardware support : Manuel Goepfert

Contact : metmap@orbifly.com




SOURCES & CREDITS :

   NOAA